sensor_id;sensor_type;location;lat;lon;timestamp;P1;P2;P0
61592;PMS5003;70568;51.378;-1.342;2023-06-10T00:00:05;21;21;
61592;PMS5003;70568;51.378;-1.342;2023-06-10T00:02:33;20;20;
61592;PMS5003;70568;51.378;-1.342;2023-06-10T00:04:59;24;22;
61592;PMS5003;70568;51.378;-1.342;2023-06-10T00:07:26;18;18;
61592;PMS5003;70568;51.378;-1.342;2023-06-10T00:09:53;18;17;
61592;PMS5003;70568;51.378;-1.342;2023-06-10T00:12:19;17;17;
61592;PMS5003;70568;51.378;-1.342;2023-06-10T00:14:47;28;23;
61592;PMS5003;70568;51.378;-1.342;2023-06-10T00:17:14;23;23;
61592;PMS5003;70568;51.378;-1.342;2023-06-10T00:19:41;28;27;
61592;PMS5003;70568;51.378;-1.342;2023-06-10T00:22:08;25;23;
61592;PMS5003;70568;51.378;-1.342;2023-06-10T00:24:36;26;26;
61592;PMS5003;70568;51.378;-1.342;2023-06-10T00:27:03;25;25;
61592;PMS5003;70568;51.378;-1.342;2023-06-10T00:29:30;23;23;
61592;PMS5003;70568;51.378;-1.342;2023-06-10T00:31:57;21;21;
61592;PMS5003;70568;51.378;-1.342;2023-06-10T00:34:24;23;22;
61592;PMS5003;70568;51.378;-1.342;2023-06-10T00:36:51;22;22;
61592;PMS5003;70568;51.378;-1.342;2023-06-10T00:39:18;18;18;
61592;PMS5003;70568;51.378;-1.342;2023-06-10T00:41:45;21;20;
61592;PMS5003;70568;51.378;-1.342;2023-06-10T00:44:12;22;21;
61592;PMS5003;70568;51.378;-1.342;2023-06-10T00:46:39;22;21;
61592;PMS5003;70568;51.378;-1.342;2023-06-10T00:49:05;22;21;
61592;PMS5003;70568;51.378;-1.342;2023-06-10T00:51:32;25;25;
61592;PMS5003;70568;51.378;-1.342;2023-06-10T00:54:00;25;23;
61592;PMS5003;70568;51.378;-1.342;2023-06-10T00:56:27;19;18;
61592;PMS5003;70568;51.378;-1.342;2023-06-10T00:58:54;18;17;
61592;PMS5003;70568;51.378;-1.342;2023-06-10T01:01:20;28;27;
61592;PMS5003;70568;51.378;-1.342;2023-06-10T01:03:47;22;21;
61592;PMS5003;70568;51.378;-1.342;2023-06-10T01:06:22;23;23;
61592;PMS5003;70568;51.378;-1.342;2023-06-10T01:08:57;32;29;
61592;PMS5003;70568;51.378;-1.342;2023-06-10T01:11:34;22;20;
61592;PMS5003;70568;51.378;-1.342;2023-06-10T01:14:05;23;22;
61592;PMS5003;70568;51.378;-1.342;2023-06-10T01:16:33;32;29;
61592;PMS5003;70568;51.378;-1.342;2023-06-10T01:19:00;28;28;
61592;PMS5003;70568;51.378;-1.342;2023-06-10T01:21:27;25;25;
61592;PMS5003;70568;51.378;-1.342;2023-06-10T01:23:54;26;24;
61592;PMS5003;70568;51.378;-1.342;2023-06-10T01:26:23;28;27;
61592;PMS5003;70568;51.378;-1.342;2023-06-10T01:28:57;33;31;
61592;PMS5003;70568;51.378;-1.342;2023-06-10T01:31:31;25;24;
61592;PMS5003;70568;51.378;-1.342;2023-06-10T01:34:05;28;27;
61592;PMS5003;70568;51.378;-1.342;2023-06-10T01:36:36;23;23;
61592;PMS5003;70568;51.378;-1.342;2023-06-10T01:39:06;25;23;
61592;PMS5003;70568;51.378;-1.342;2023-06-10T01:41:36;32;31;
61592;PMS5003;70568;51.378;-1.342;2023-06-10T01:44:04;32;30;
61592;PMS5003;70568;51.378;-1.342;2023-06-10T01:46:30;28;27;
61592;PMS5003;70568;51.378;-1.342;2023-06-10T01:48:57;26;26;
61592;PMS5003;70568;51.378;-1.342;2023-06-10T01:51:23;28;27;
61592;PMS5003;70568;51.378;-1.342;2023-06-10T01:53:50;30;26;
61592;PMS5003;70568;51.378;-1.342;2023-06-10T01:56:17;33;32;
61592;PMS5003;70568;51.378;-1.342;2023-06-10T01:58:44;35;32;
61592;PMS5003;70568;51.378;-1.342;2023-06-10T02:01:11;36;33;
61592;PMS5003;70568;51.378;-1.342;2023-06-10T02:03:38;26;26;
61592;PMS5003;70568;51.378;-1.342;2023-06-10T02:06:05;35;34;
61592;PMS5003;70568;51.378;-1.342;2023-06-10T02:08:32;29;29;
61592;PMS5003;70568;51.378;-1.342;2023-06-10T02:10:58;30;30;
61592;PMS5003;70568;51.378;-1.342;2023-06-10T02:13:26;29;27;
61592;PMS5003;70568;51.378;-1.342;2023-06-10T02:15:52;28;26;
61592;PMS5003;70568;51.378;-1.342;2023-06-10T02:18:19;28;27;
61592;PMS5003;70568;51.378;-1.342;2023-06-10T02:20:45;27;25;
61592;PMS5003;70568;51.378;-1.342;2023-06-10T02:23:12;27;26;
61592;PMS5003;70568;51.378;-1.342;2023-06-10T02:25:39;32;29;
61592;PMS5003;70568;51.378;-1.342;2023-06-10T02:28:06;28;27;
61592;PMS5003;70568;51.378;-1.342;2023-06-10T02:30:33;31;28;
61592;PMS5003;70568;51.378;-1.342;2023-06-10T02:32:59;28;27;
61592;PMS5003;70568;51.378;-1.342;2023-06-10T02:35:26;28;26;
61592;PMS5003;70568;51.378;-1.342;2023-06-10T02:37:53;31;28;
61592;PMS5003;70568;51.378;-1.342;2023-06-10T02:40:20;25;24;
61592;PMS5003;70568;51.378;-1.342;2023-06-10T02:42:47;36;33;
61592;PMS5003;70568;51.378;-1.342;2023-06-10T02:45:13;25;25;
61592;PMS5003;70568;51.378;-1.342;2023-06-10T02:47:41;31;30;
61592;PMS5003;70568;51.378;-1.342;2023-06-10T02:50:08;32;32;
61592;PMS5003;70568;51.378;-1.342;2023-06-10T02:52:35;31;30;
61592;PMS5003;70568;51.378;-1.342;2023-06-10T02:55:02;29;27;
61592;PMS5003;70568;51.378;-1.342;2023-06-10T02:57:28;27;26;
61592;PMS5003;70568;51.378;-1.342;2023-06-10T02:59:55;27;26;
61592;PMS5003;70568;51.378;-1.342;2023-06-10T03:02:22;23;22;
61592;PMS5003;70568;51.378;-1.342;2023-06-10T03:04:49;28;28;
61592;PMS5003;70568;51.378;-1.342;2023-06-10T03:07:15;29;29;
61592;PMS5003;70568;51.378;-1.342;2023-06-10T03:09:42;30;29;
61592;PMS5003;70568;51.378;-1.342;2023-06-10T03:12:09;28;26;
61592;PMS5003;70568;51.378;-1.342;2023-06-10T03:14:36;26;25;
61592;PMS5003;70568;51.378;-1.342;2023-06-10T03:17:03;38;34;
61592;PMS5003;70568;51.378;-1.342;2023-06-10T03:19:30;29;28;
61592;PMS5003;70568;51.378;-1.342;2023-06-10T03:21:58;34;32;
61592;PMS5003;70568;51.378;-1.342;2023-06-10T03:24:34;30;29;
61592;PMS5003;70568;51.378;-1.342;2023-06-10T03:27:01;29;28;
61592;PMS5003;70568;51.378;-1.342;2023-06-10T03:29:28;34;32;
61592;PMS5003;70568;51.378;-1.342;2023-06-10T03:31:55;31;26;
61592;PMS5003;70568;51.378;-1.342;2023-06-10T03:34:21;29;27;
61592;PMS5003;70568;51.378;-1.342;2023-06-10T03:36:49;35;34;
61592;PMS5003;70568;51.378;-1.342;2023-06-10T03:39:16;36;34;
61592;PMS5003;70568;51.378;-1.342;2023-06-10T03:41:43;27;25;
61592;PMS5003;70568;51.378;-1.342;2023-06-10T03:44:10;30;28;
61592;PMS5003;70568;51.378;-1.342;2023-06-10T03:46:37;33;32;
61592;PMS5003;70568;51.378;-1.342;2023-06-10T03:49:03;34;33;
61592;PMS5003;70568;51.378;-1.342;2023-06-10T03:51:31;27;26;
61592;PMS5003;70568;51.378;-1.342;2023-06-10T03:53:57;30;28;
61592;PMS5003;70568;51.378;-1.342;2023-06-10T03:56:24;35;32;
61592;PMS5003;70568;51.378;-1.342;2023-06-10T03:58:51;29;29;
61592;PMS5003;70568;51.378;-1.342;2023-06-10T04:01:18;31;30;
61592;PMS5003;70568;51.378;-1.342;2023-06-10T04:03:45;28;28;
61592;PMS5003;70568;51.378;-1.342;2023-06-10T04:06:12;28;26;
61592;PMS5003;70568;51.378;-1.342;2023-06-10T04:08:39;27;26;
61592;PMS5003;70568;51.378;-1.342;2023-06-10T04:11:05;29;28;
61592;PMS5003;70568;51.378;-1.342;2023-06-10T04:13:31;35;30;
61592;PMS5003;70568;51.378;-1.342;2023-06-10T04:15:58;30;28;
61592;PMS5003;70568;51.378;-1.342;2023-06-10T04:18:24;34;30;
61592;PMS5003;70568;51.378;-1.342;2023-06-10T04:20:52;31;30;
61592;PMS5003;70568;51.378;-1.342;2023-06-10T04:23:19;29;28;
61592;PMS5003;70568;51.378;-1.342;2023-06-10T04:25:45;32;31;
61592;PMS5003;70568;51.378;-1.342;2023-06-10T04:28:12;36;34;
61592;PMS5003;70568;51.378;-1.342;2023-06-10T04:30:40;30;30;
61592;PMS5003;70568;51.378;-1.342;2023-06-10T04:33:06;39;36;
61592;PMS5003;70568;51.378;-1.342;2023-06-10T04:35:33;34;34;
61592;PMS5003;70568;51.378;-1.342;2023-06-10T04:38:00;36;34;
61592;PMS5003;70568;51.378;-1.342;2023-06-10T04:40:26;38;34;
61592;PMS5003;70568;51.378;-1.342;2023-06-10T04:42:53;37;36;
61592;PMS5003;70568;51.378;-1.342;2023-06-10T04:45:20;36;35;
61592;PMS5003;70568;51.378;-1.342;2023-06-10T04:47:47;35;33;
61592;PMS5003;70568;51.378;-1.342;2023-06-10T04:50:14;34;33;
61592;PMS5003;70568;51.378;-1.342;2023-06-10T04:52:40;45;44;
61592;PMS5003;70568;51.378;-1.342;2023-06-10T04:55:08;46;42;
61592;PMS5003;70568;51.378;-1.342;2023-06-10T04:57:35;39;37;
61592;PMS5003;70568;51.378;-1.342;2023-06-10T05:00:02;36;34;
61592;PMS5003;70568;51.378;-1.342;2023-06-10T05:02:30;41;39;
61592;PMS5003;70568;51.378;-1.342;2023-06-10T05:04:57;43;40;
61592;PMS5003;70568;51.378;-1.342;2023-06-10T05:07:24;42;39;
61592;PMS5003;70568;51.378;-1.342;2023-06-10T05:09:51;35;34;
61592;PMS5003;70568;51.378;-1.342;2023-06-10T05:12:18;37;35;
61592;PMS5003;70568;51.378;-1.342;2023-06-10T05:14:45;41;38;
61592;PMS5003;70568;51.378;-1.342;2023-06-10T05:17:12;39;38;
61592;PMS5003;70568;51.378;-1.342;2023-06-10T05:19:39;31;30;
61592;PMS5003;70568;51.378;-1.342;2023-06-10T05:22:06;45;42;
61592;PMS5003;70568;51.378;-1.342;2023-06-10T05:24:33;33;33;
61592;PMS5003;70568;51.378;-1.342;2023-06-10T05:27:00;35;35;
61592;PMS5003;70568;51.378;-1.342;2023-06-10T05:29:26;41;39;
61592;PMS5003;70568;51.378;-1.342;2023-06-10T05:31:53;37;36;
61592;PMS5003;70568;51.378;-1.342;2023-06-10T05:34:20;33;33;
61592;PMS5003;70568;51.378;-1.342;2023-06-10T05:36:46;36;35;
61592;PMS5003;70568;51.378;-1.342;2023-06-10T05:39:13;40;35;
61592;PMS5003;70568;51.378;-1.342;2023-06-10T05:41:40;38;35;
61592;PMS5003;70568;51.378;-1.342;2023-06-10T05:44:06;35;32;
61592;PMS5003;70568;51.378;-1.342;2023-06-10T05:46:33;34;34;
61592;PMS5003;70568;51.378;-1.342;2023-06-10T05:49:00;38;34;
61592;PMS5003;70568;51.378;-1.342;2023-06-10T05:51:27;40;37;
61592;PMS5003;70568;51.378;-1.342;2023-06-10T05:53:53;37;36;
61592;PMS5003;70568;51.378;-1.342;2023-06-10T05:56:21;32;28;
61592;PMS5003;70568;51.378;-1.342;2023-06-10T05:58:47;33;31;
61592;PMS5003;70568;51.378;-1.342;2023-06-10T06:01:15;29;28;
61592;PMS5003;70568;51.378;-1.342;2023-06-10T06:03:42;41;39;
61592;PMS5003;70568;51.378;-1.342;2023-06-10T06:06:09;35;33;
61592;PMS5003;70568;51.378;-1.342;2023-06-10T06:08:36;31;30;
61592;PMS5003;70568;51.378;-1.342;2023-06-10T06:11:03;31;29;
61592;PMS5003;70568;51.378;-1.342;2023-06-10T06:13:30;25;24;
61592;PMS5003;70568;51.378;-1.342;2023-06-10T06:15:56;31;30;
61592;PMS5003;70568;51.378;-1.342;2023-06-10T06:18:23;38;36;
61592;PMS5003;70568;51.378;-1.342;2023-06-10T06:20:50;33;33;
61592;PMS5003;70568;51.378;-1.342;2023-06-10T06:23:17;33;31;
61592;PMS5003;70568;51.378;-1.342;2023-06-10T06:25:44;32;28;
61592;PMS5003;70568;51.378;-1.342;2023-06-10T06:28:11;34;31;
61592;PMS5003;70568;51.378;-1.342;2023-06-10T06:30:38;32;32;
61592;PMS5003;70568;51.378;-1.342;2023-06-10T06:33:04;34;32;
61592;PMS5003;70568;51.378;-1.342;2023-06-10T06:35:32;34;31;
61592;PMS5003;70568;51.378;-1.342;2023-06-10T06:37:59;28;28;
61592;PMS5003;70568;51.378;-1.342;2023-06-10T06:40:26;32;31;
61592;PMS5003;70568;51.378;-1.342;2023-06-10T06:42:53;30;30;
61592;PMS5003;70568;51.378;-1.342;2023-06-10T06:45:20;31;30;
61592;PMS5003;70568;51.378;-1.342;2023-06-10T06:47:48;32;30;
61592;PMS5003;70568;51.378;-1.342;2023-06-10T06:50:14;27;26;
61592;PMS5003;70568;51.378;-1.342;2023-06-10T06:52:41;29;28;
61592;PMS5003;70568;51.378;-1.342;2023-06-10T06:55:09;29;28;
61592;PMS5003;70568;51.378;-1.342;2023-06-10T06:57:36;28;28;
61592;PMS5003;70568;51.378;-1.342;2023-06-10T07:00:04;28;28;
61592;PMS5003;70568;51.378;-1.342;2023-06-10T07:02:31;30;28;
61592;PMS5003;70568;51.378;-1.342;2023-06-10T07:04:58;29;27;
61592;PMS5003;70568;51.378;-1.342;2023-06-10T07:07:24;28;28;
61592;PMS5003;70568;51.378;-1.342;2023-06-10T07:09:51;32;31;
61592;PMS5003;70568;51.378;-1.342;2023-06-10T07:12:18;28;28;
61592;PMS5003;70568;51.378;-1.342;2023-06-10T07:14:45;28;28;
61592;PMS5003;70568;51.378;-1.342;2023-06-10T07:17:11;24;24;
61592;PMS5003;70568;51.378;-1.342;2023-06-10T07:19:39;25;23;
61592;PMS5003;70568;51.378;-1.342;2023-06-10T07:22:06;30;29;
61592;PMS5003;70568;51.378;-1.342;2023-06-10T07:24:32;24;22;
61592;PMS5003;70568;51.378;-1.342;2023-06-10T07:26:59;29;28;
61592;PMS5003;70568;51.378;-1.342;2023-06-10T07:29:26;26;26;
61592;PMS5003;70568;51.378;-1.342;2023-06-10T07:31:52;32;30;
61592;PMS5003;70568;51.378;-1.342;2023-06-10T07:34:19;27;27;
61592;PMS5003;70568;51.378;-1.342;2023-06-10T07:36:46;25;23;
61592;PMS5003;70568;51.378;-1.342;2023-06-10T07:39:12;29;27;
61592;PMS5003;70568;51.378;-1.342;2023-06-10T07:41:39;24;24;
61592;PMS5003;70568;51.378;-1.342;2023-06-10T07:44:05;25;25;
61592;PMS5003;70568;51.378;-1.342;2023-06-10T07:46:32;28;25;
61592;PMS5003;70568;51.378;-1.342;2023-06-10T07:48:59;27;26;
61592;PMS5003;70568;51.378;-1.342;2023-06-10T07:51:26;30;29;
61592;PMS5003;70568;51.378;-1.342;2023-06-10T07:53:53;30;27;
61592;PMS5003;70568;51.378;-1.342;2023-06-10T07:56:20;26;25;
61592;PMS5003;70568;51.378;-1.342;2023-06-10T07:58:46;25;25;
61592;PMS5003;70568;51.378;-1.342;2023-06-10T08:01:13;36;33;
61592;PMS5003;70568;51.378;-1.342;2023-06-10T08:03:39;23;23;
61592;PMS5003;70568;51.378;-1.342;2023-06-10T08:06:06;33;31;
61592;PMS5003;70568;51.378;-1.342;2023-06-10T08:08:33;35;30;
61592;PMS5003;70568;51.378;-1.342;2023-06-10T08:11:00;22;22;
61592;PMS5003;70568;51.378;-1.342;2023-06-10T08:13:26;24;23;
61592;PMS5003;70568;51.378;-1.342;2023-06-10T08:15:53;26;26;
61592;PMS5003;70568;51.378;-1.342;2023-06-10T08:18:20;22;22;
61592;PMS5003;70568;51.378;-1.342;2023-06-10T08:20:48;30;29;
61592;PMS5003;70568;51.378;-1.342;2023-06-10T08:23:14;30;29;
61592;PMS5003;70568;51.378;-1.342;2023-06-10T08:25:41;23;23;
61592;PMS5003;70568;51.378;-1.342;2023-06-10T08:28:09;22;21;
61592;PMS5003;70568;51.378;-1.342;2023-06-10T08:30:36;27;26;
61592;PMS5003;70568;51.378;-1.342;2023-06-10T08:33:04;23;23;
61592;PMS5003;70568;51.378;-1.342;2023-06-10T08:35:30;24;23;
61592;PMS5003;70568;51.378;-1.342;2023-06-10T08:37:57;24;23;
61592;PMS5003;70568;51.378;-1.342;2023-06-10T08:40:24;22;21;
61592;PMS5003;70568;51.378;-1.342;2023-06-10T08:42:53;28;27;
61592;PMS5003;70568;51.378;-1.342;2023-06-10T08:45:30;22;21;
61592;PMS5003;70568;51.378;-1.342;2023-06-10T08:47:57;27;27;
61592;PMS5003;70568;51.378;-1.342;2023-06-10T08:50:25;23;23;
61592;PMS5003;70568;51.378;-1.342;2023-06-10T08:52:57;30;28;
61592;PMS5003;70568;51.378;-1.342;2023-06-10T08:55:27;32;31;
61592;PMS5003;70568;51.378;-1.342;2023-06-10T08:57:57;25;24;
61592;PMS5003;70568;51.378;-1.342;2023-06-10T09:00:24;26;26;
61592;PMS5003;70568;51.378;-1.342;2023-06-10T09:02:52;29;28;
61592;PMS5003;70568;51.378;-1.342;2023-06-10T09:05:19;24;23;
61592;PMS5003;70568;51.378;-1.342;2023-06-10T09:07:46;30;28;
61592;PMS5003;70568;51.378;-1.342;2023-06-10T09:10:14;24;24;
61592;PMS5003;70568;51.378;-1.342;2023-06-10T09:12:41;31;30;
61592;PMS5003;70568;51.378;-1.342;2023-06-10T09:15:08;31;29;
61592;PMS5003;70568;51.378;-1.342;2023-06-10T09:17:36;28;27;
61592;PMS5003;70568;51.378;-1.342;2023-06-10T09:20:04;23;22;
61592;PMS5003;70568;51.378;-1.342;2023-06-10T09:22:32;27;24;
61592;PMS5003;70568;51.378;-1.342;2023-06-10T09:25:03;25;25;
61592;PMS5003;70568;51.378;-1.342;2023-06-10T09:27:30;38;35;
61592;PMS5003;70568;51.378;-1.342;2023-06-10T09:29:57;23;23;
61592;PMS5003;70568;51.378;-1.342;2023-06-10T09:32:24;26;25;
61592;PMS5003;70568;51.378;-1.342;2023-06-10T09:34:51;31;28;
61592;PMS5003;70568;51.378;-1.342;2023-06-10T09:37:19;26;26;
61592;PMS5003;70568;51.378;-1.342;2023-06-10T09:39:56;27;25;
61592;PMS5003;70568;51.378;-1.342;2023-06-10T09:42:27;32;31;
61592;PMS5003;70568;51.378;-1.342;2023-06-10T09:44:58;26;26;
61592;PMS5003;70568;51.378;-1.342;2023-06-10T09:47:25;28;27;
61592;PMS5003;70568;51.378;-1.342;2023-06-10T09:49:52;32;31;
61592;PMS5003;70568;51.378;-1.342;2023-06-10T09:52:20;28;27;
61592;PMS5003;70568;51.378;-1.342;2023-06-10T09:54:48;27;25;
61592;PMS5003;70568;51.378;-1.342;2023-06-10T09:57:14;28;27;
61592;PMS5003;70568;51.378;-1.342;2023-06-10T09:59:43;27;26;
61592;PMS5003;70568;51.378;-1.342;2023-06-10T10:02:13;28;26;
61592;PMS5003;70568;51.378;-1.342;2023-06-10T10:04:40;23;23;
61592;PMS5003;70568;51.378;-1.342;2023-06-10T10:07:07;28;28;
61592;PMS5003;70568;51.378;-1.342;2023-06-10T10:09:35;24;23;
61592;PMS5003;70568;51.378;-1.342;2023-06-10T10:12:02;22;21;
61592;PMS5003;70568;51.378;-1.342;2023-06-10T10:14:35;25;24;
61592;PMS5003;70568;51.378;-1.342;2023-06-10T10:17:03;25;25;
61592;PMS5003;70568;51.378;-1.342;2023-06-10T10:19:34;23;22;
61592;PMS5003;70568;51.378;-1.342;2023-06-10T10:22:07;19;19;
61592;PMS5003;70568;51.378;-1.342;2023-06-10T10:24:38;24;23;
61592;PMS5003;70568;51.378;-1.342;2023-06-10T10:27:11;31;29;
61592;PMS5003;70568;51.378;-1.342;2023-06-10T10:29:45;26;25;
61592;PMS5003;70568;51.378;-1.342;2023-06-10T10:32:14;22;22;
61592;PMS5003;70568;51.378;-1.342;2023-06-10T10:34:43;25;24;
61592;PMS5003;70568;51.378;-1.342;2023-06-10T10:37:15;21;21;
61592;PMS5003;70568;51.378;-1.342;2023-06-10T10:39:44;27;27;
61592;PMS5003;70568;51.378;-1.342;2023-06-10T10:42:11;25;23;
61592;PMS5003;70568;51.378;-1.342;2023-06-10T10:44:39;24;23;
61592;PMS5003;70568;51.378;-1.342;2023-06-10T10:47:08;25;25;
61592;PMS5003;70568;51.378;-1.342;2023-06-10T10:49:37;22;22;
61592;PMS5003;70568;51.378;-1.342;2023-06-10T10:52:04;24;23;
61592;PMS5003;70568;51.378;-1.342;2023-06-10T10:54:32;23;22;
61592;PMS5003;70568;51.378;-1.342;2023-06-10T10:57:16;26;26;
61592;PMS5003;70568;51.378;-1.342;2023-06-10T10:59:45;24;24;
61592;PMS5003;70568;51.378;-1.342;2023-06-10T11:02:15;23;23;
61592;PMS5003;70568;51.378;-1.342;2023-06-10T11:04:45;25;23;
61592;PMS5003;70568;51.378;-1.342;2023-06-10T11:07:13;21;21;
61592;PMS5003;70568;51.378;-1.342;2023-06-10T11:09:40;26;26;
61592;PMS5003;70568;51.378;-1.342;2023-06-10T11:12:24;21;21;
61592;PMS5003;70568;51.378;-1.342;2023-06-10T11:14:53;23;23;
61592;PMS5003;70568;51.378;-1.342;2023-06-10T11:17:21;23;22;
61592;PMS5003;70568;51.378;-1.342;2023-06-10T11:19:48;21;21;
61592;PMS5003;70568;51.378;-1.342;2023-06-10T11:22:16;25;24;
61592;PMS5003;70568;51.378;-1.342;2023-06-10T11:24:47;20;20;
61592;PMS5003;70568;51.378;-1.342;2023-06-10T11:27:15;26;25;
61592;PMS5003;70568;51.378;-1.342;2023-06-10T11:29:58;23;22;
61592;PMS5003;70568;51.378;-1.342;2023-06-10T11:32:43;22;21;
61592;PMS5003;70568;51.378;-1.342;2023-06-10T11:35:11;21;21;
61592;PMS5003;70568;51.378;-1.342;2023-06-10T11:37:38;26;26;
61592;PMS5003;70568;51.378;-1.342;2023-06-10T11:40:05;26;25;
61592;PMS5003;70568;51.378;-1.342;2023-06-10T11:42:38;22;22;
61592;PMS5003;70568;51.378;-1.342;2023-06-10T11:45:06;26;23;
61592;PMS5003;70568;51.378;-1.342;2023-06-10T11:47:34;22;22;
61592;PMS5003;70568;51.378;-1.342;2023-06-10T11:50:01;23;23;
61592;PMS5003;70568;51.378;-1.342;2023-06-10T11:52:28;22;21;
61592;PMS5003;70568;51.378;-1.342;2023-06-10T11:54:55;24;23;
61592;PMS5003;70568;51.378;-1.342;2023-06-10T11:57:22;25;25;
61592;PMS5003;70568;51.378;-1.342;2023-06-10T11:59:49;24;24;
61592;PMS5003;70568;51.378;-1.342;2023-06-10T12:02:16;25;23;
61592;PMS5003;70568;51.378;-1.342;2023-06-10T12:04:43;21;21;
61592;PMS5003;70568;51.378;-1.342;2023-06-10T12:07:16;22;20;
61592;PMS5003;70568;51.378;-1.342;2023-06-10T12:09:43;23;23;
61592;PMS5003;70568;51.378;-1.342;2023-06-10T12:12:11;22;22;
61592;PMS5003;70568;51.378;-1.342;2023-06-10T12:14:54;23;21;
61592;PMS5003;70568;51.378;-1.342;2023-06-10T12:17:22;24;24;
61592;PMS5003;70568;51.378;-1.342;2023-06-10T12:20:01;24;24;
61592;PMS5003;70568;51.378;-1.342;2023-06-10T12:22:35;28;27;
61592;PMS5003;70568;51.378;-1.342;2023-06-10T12:25:03;25;24;
61592;PMS5003;70568;51.378;-1.342;2023-06-10T12:27:31;25;24;
61592;PMS5003;70568;51.378;-1.342;2023-06-10T12:29:58;23;22;
61592;PMS5003;70568;51.378;-1.342;2023-06-10T12:32:34;25;25;
61592;PMS5003;70568;51.378;-1.342;2023-06-10T12:35:02;25;25;
61592;PMS5003;70568;51.378;-1.342;2023-06-10T12:37:30;21;21;
61592;PMS5003;70568;51.378;-1.342;2023-06-10T12:39:57;23;22;
61592;PMS5003;70568;51.378;-1.342;2023-06-10T12:42:26;23;23;
61592;PMS5003;70568;51.378;-1.342;2023-06-10T12:44:53;21;21;
61592;PMS5003;70568;51.378;-1.342;2023-06-10T12:47:21;20;19;
61592;PMS5003;70568;51.378;-1.342;2023-06-10T12:49:56;23;23;
61592;PMS5003;70568;51.378;-1.342;2023-06-10T12:52:23;21;20;
61592;PMS5003;70568;51.378;-1.342;2023-06-10T12:54:50;22;21;
61592;PMS5003;70568;51.378;-1.342;2023-06-10T12:57:17;24;24;
61592;PMS5003;70568;51.378;-1.342;2023-06-10T12:59:43;21;21;
61592;PMS5003;70568;51.378;-1.342;2023-06-10T13:02:10;20;20;
61592;PMS5003;70568;51.378;-1.342;2023-06-10T13:04:37;23;23;
61592;PMS5003;70568;51.378;-1.342;2023-06-10T13:07:04;24;24;
61592;PMS5003;70568;51.378;-1.342;2023-06-10T13:09:30;23;23;
61592;PMS5003;70568;51.378;-1.342;2023-06-10T13:11:57;24;23;
61592;PMS5003;70568;51.378;-1.342;2023-06-10T13:14:24;24;22;
61592;PMS5003;70568;51.378;-1.342;2023-06-10T13:16:51;24;24;
61592;PMS5003;70568;51.378;-1.342;2023-06-10T13:19:17;20;20;
61592;PMS5003;70568;51.378;-1.342;2023-06-10T13:21:44;27;27;
61592;PMS5003;70568;51.378;-1.342;2023-06-10T13:24:10;23;23;
61592;PMS5003;70568;51.378;-1.342;2023-06-10T13:26:37;22;22;
61592;PMS5003;70568;51.378;-1.342;2023-06-10T13:29:04;20;19;
61592;PMS5003;70568;51.378;-1.342;2023-06-10T13:31:31;27;27;
61592;PMS5003;70568;51.378;-1.342;2023-06-10T13:33:58;22;22;
61592;PMS5003;70568;51.378;-1.342;2023-06-10T13:36:25;23;22;
61592;PMS5003;70568;51.378;-1.342;2023-06-10T13:38:52;21;21;
61592;PMS5003;70568;51.378;-1.342;2023-06-10T13:41:19;20;20;
61592;PMS5003;70568;51.378;-1.342;2023-06-10T13:43:45;22;21;
61592;PMS5003;70568;51.378;-1.342;2023-06-10T13:46:12;21;21;
61592;PMS5003;70568;51.378;-1.342;2023-06-10T13:48:39;19;18;
61592;PMS5003;70568;51.378;-1.342;2023-06-10T13:51:05;19;18;
61592;PMS5003;70568;51.378;-1.342;2023-06-10T13:53:32;22;22;
61592;PMS5003;70568;51.378;-1.342;2023-06-10T13:55:58;21;20;
61592;PMS5003;70568;51.378;-1.342;2023-06-10T13:58:25;21;20;
61592;PMS5003;70568;51.378;-1.342;2023-06-10T14:00:52;22;20;
61592;PMS5003;70568;51.378;-1.342;2023-06-10T14:03:19;19;19;
61592;PMS5003;70568;51.378;-1.342;2023-06-10T14:05:45;20;19;
61592;PMS5003;70568;51.378;-1.342;2023-06-10T14:08:12;20;20;
61592;PMS5003;70568;51.378;-1.342;2023-06-10T14:10:39;16;16;
61592;PMS5003;70568;51.378;-1.342;2023-06-10T14:13:05;18;18;
61592;PMS5003;70568;51.378;-1.342;2023-06-10T14:15:32;20;19;
61592;PMS5003;70568;51.378;-1.342;2023-06-10T14:17:58;19;19;
61592;PMS5003;70568;51.378;-1.342;2023-06-10T14:20:25;22;19;
61592;PMS5003;70568;51.378;-1.342;2023-06-10T14:22:52;17;17;
61592;PMS5003;70568;51.378;-1.342;2023-06-10T14:25:19;18;17;
61592;PMS5003;70568;51.378;-1.342;2023-06-10T14:27:45;18;18;
61592;PMS5003;70568;51.378;-1.342;2023-06-10T14:30:12;20;20;
61592;PMS5003;70568;51.378;-1.342;2023-06-10T14:32:39;20;19;
61592;PMS5003;70568;51.378;-1.342;2023-06-10T14:35:06;19;19;
61592;PMS5003;70568;51.378;-1.342;2023-06-10T14:37:32;19;19;
61592;PMS5003;70568;51.378;-1.342;2023-06-10T14:39:59;17;17;
61592;PMS5003;70568;51.378;-1.342;2023-06-10T14:42:26;18;18;
61592;PMS5003;70568;51.378;-1.342;2023-06-10T14:44:52;17;17;
61592;PMS5003;70568;51.378;-1.342;2023-06-10T14:47:18;18;18;
61592;PMS5003;70568;51.378;-1.342;2023-06-10T14:49:45;18;18;
61592;PMS5003;70568;51.378;-1.342;2023-06-10T14:52:12;19;19;
61592;PMS5003;70568;51.378;-1.342;2023-06-10T14:54:39;15;15;
61592;PMS5003;70568;51.378;-1.342;2023-06-10T14:57:06;17;17;
61592;PMS5003;70568;51.378;-1.342;2023-06-10T14:59:33;16;16;
61592;PMS5003;70568;51.378;-1.342;2023-06-10T15:02:00;19;19;
61592;PMS5003;70568;51.378;-1.342;2023-06-10T15:04:27;20;20;
61592;PMS5003;70568;51.378;-1.342;2023-06-10T15:06:54;18;18;
61592;PMS5003;70568;51.378;-1.342;2023-06-10T15:09:20;18;18;
61592;PMS5003;70568;51.378;-1.342;2023-06-10T15:11:47;15;15;
61592;PMS5003;70568;51.378;-1.342;2023-06-10T15:14:14;17;16;
61592;PMS5003;70568;51.378;-1.342;2023-06-10T15:16:41;18;18;
61592;PMS5003;70568;51.378;-1.342;2023-06-10T15:19:08;15;15;
61592;PMS5003;70568;51.378;-1.342;2023-06-10T15:21:35;24;23;
61592;PMS5003;70568;51.378;-1.342;2023-06-10T15:24:02;17;16;
61592;PMS5003;70568;51.378;-1.342;2023-06-10T15:26:29;16;16;
61592;PMS5003;70568;51.378;-1.342;2023-06-10T15:28:57;18;18;
61592;PMS5003;70568;51.378;-1.342;2023-06-10T15:31:23;18;18;
61592;PMS5003;70568;51.378;-1.342;2023-06-10T15:33:49;16;16;
61592;PMS5003;70568;51.378;-1.342;2023-06-10T15:36:16;18;18;
61592;PMS5003;70568;51.378;-1.342;2023-06-10T15:38:43;16;16;
61592;PMS5003;70568;51.378;-1.342;2023-06-10T15:41:10;17;17;
61592;PMS5003;70568;51.378;-1.342;2023-06-10T15:43:38;19;19;
61592;PMS5003;70568;51.378;-1.342;2023-06-10T15:46:04;15;15;
61592;PMS5003;70568;51.378;-1.342;2023-06-10T15:48:30;17;17;
61592;PMS5003;70568;51.378;-1.342;2023-06-10T15:50:57;19;17;
61592;PMS5003;70568;51.378;-1.342;2023-06-10T15:53:24;19;18;
61592;PMS5003;70568;51.378;-1.342;2023-06-10T15:55:51;18;18;
61592;PMS5003;70568;51.378;-1.342;2023-06-10T15:58:17;17;17;
61592;PMS5003;70568;51.378;-1.342;2023-06-10T16:00:44;18;16;
61592;PMS5003;70568;51.378;-1.342;2023-06-10T16:03:11;18;17;